Pagina principale
METAR-TAF:

METAR-TAF

Aeroporti :

Upington, Sudafrica

latitudine: 28-24S, longitudine: 021-16E, altezza: 839 m

Osservazione

Il bollettino è stato emesso 54 minuti fa, alle 20:00 UTC
Vento 2 kt da nord-est
Temperature 10°C
Umidità 29%
Pressione 1021 hPa

METAR: FAUP 262000Z AUTO 04002KT //// // ////// 10/M07 Q1021

Ora: 22:54 (20:54 UTC)

Previsione

Il bollettino è stato emesso 4 ore e 54 minuti fa, alle 16:00 UTC
Previsione valida dal 26 alle 18 UTC al 27 alle 18 UTC
Vento 3 kt da direzioni variabili
Visibilità 10 km o più
nessuna nube inferiore a 1500 m e nessun cumulonembo
Evoluzione graduale
dal 27 alle 04 UTC al 27 alle 06 UTC
Vento 10 kt da nord

TAF: FAUP 261600Z 2618/2718 VRB03KT CAVOK TX25/2713Z TN03/2704Z BECMG 2704/2706 36010KT

Osservazioni e previsioni meteorologiche di più di 4000 aeroporti (messaggi METAR e TAF).

Le stazioni disponibili sono rappresentate dai dischi gialli e rossi sulla carta.

Puntare il mouse per vedere il nome della stazione.

Clicca sopra per visualizzare le osservazioni e previsioni meteorologiche.

Per cambiare la mappa : fare clic sui pulsanti verdi con una croce nera per ingrandire, il pulsante verde con un trattino per diminuire, o sulla freccia verde per le mappe adiacenti.


METAR-TAF: